Time;durP1;ratioP1;P1;durP2;ratioP2;P2;SDS_P1;SDS_P2;PMS_P1;PMS_P2;Temp;Humidity;BMP_temperature;BMP_pressure;BME280_temperature;BME280_humidity;BME280_pressure;Samples;Min_cycle;Max_cycle;Signal;HPM_P1;HPM_P2
2023/04/18 00:00:49;;;;;;;;;;;;;;;18.72;66.02;102492.81;5076538;28;20446;-54
2023/04/18 00:03:14;;;;;;;;;;;;;;;18.63;65.54;102488.63;5076452;28;19985;-52
2023/04/18 00:05:40;;;;;;;;;;;;;;;18.62;65.16;102490.53;5076456;28;20371;-51
2023/04/18 00:08:06;;;;;;;;;;;;;;;18.46;64.63;102489.06;5076222;28;19920;-54
2023/04/18 00:10:32;;;;;;;;;;;;;;;18.27;64.69;102489.88;5076396;28;19951;-51
2023/04/18 00:12:57;;;;;;;;;;;;;;;18.57;62.42;102490.31;5076281;28;19920;-53
2023/04/18 00:15:23;;;;;;;;;;;;;;;18.40;60.80;102494.47;5076089;28;19994;-55
2023/04/18 00:17:48;;;;;;;;;;;;;;;18.43;59.58;102485.94;5076318;28;19948;-53
2023/04/18 00:20:13;;;;;;;;;;;;;;;18.50;58.08;102489.47;5076198;28;19948;-55
2023/04/18 00:22:43;;;;;;;;;;;;;;;18.40;57.50;102494.47;5075997;28;19917;-54
2023/04/18 00:25:09;;;;;;;;;;;;;;;18.39;56.61;102493.63;5076020;28;19924;-54
2023/04/18 00:27:36;;;;;;;;;;;;;;;18.34;56.04;102485.31;5076164;28;19925;-50
2023/04/18 00:30:02;;;;;;;;;;;;;;;18.27;56.42;102495.31;5075991;28;19936;-54
2023/04/18 00:32:27;;;;;;;;;;;;;;;18.18;56.47;102497.38;5076026;28;19925;-51
2023/04/18 00:34:52;;;;;;;;;;;;;;;18.08;55.70;102489.66;5076229;28;19912;-56
2023/04/18 00:37:18;;;;;;;;;;;;;;;18.29;55.47;102494.03;5075896;28;19948;-54
2023/04/18 00:39:43;;;;;;;;;;;;;;;18.12;54.72;102498.19;5075555;28;19917;-55
2023/04/18 00:42:09;;;;;;;;;;;;;;;18.04;54.34;102496.53;5075597;28;19916;-53
2023/04/18 00:44:34;;;;;;;;;;;;;;;18.01;54.33;102491.50;5075851;28;19966;-53
2023/04/18 00:47:00;;;;;;;;;;;;;;;17.73;54.14;102484.31;5073810;28;19959;-56
2023/04/18 00:49:26;;;;;;;;;;;;;;;17.69;54.36;102483.91;5075716;28;19917;-53
2023/04/18 00:51:52;;;;;;;;;;;;;;;17.32;54.51;102486.88;5072665;28;19979;-52
2023/04/18 00:54:17;;;;;;;;;;;;;;;17.59;53.12;102488.84;5055697;28;19930;-55
2023/04/18 00:56:44;;;;;;;;;;;;;;;17.71;52.41;102491.81;5038006;28;19921;-52
2023/04/18 00:59:10;;;;;;;;;;;;;;;17.75;52.04;102482.22;5055597;28;19967;-55
2023/04/18 01:01:35;;;;;;;;;;;;;;;17.56;51.62;102484.69;5055571;28;19937;-54
2023/04/18 01:04:01;;;;;;;;;;;;;;;17.58;51.65;102484.47;5038016;28;19917;-54
2023/04/18 01:06:26;;;;;;;;;;;;;;;17.35;51.85;102485.63;5055640;28;19916;-54
2023/04/18 01:08:54;;;;;;;;;;;;;;;17.44;51.62;102492.56;5053515;28;19917;-52
2023/04/18 01:11:19;;;;;;;;;;;;;;;17.45;51.53;102482.56;5038053;28;19940;-54
2023/04/18 01:14:03;;;;;;;;;;;;;;;17.40;51.89;102485.03;5054099;28;19977;-56
2023/04/18 01:16:32;;;;;;;;;;;;;;;17.52;50.68;102485.28;5054719;28;19981;-55
2023/04/18 01:18:58;;;;;;;;;;;;;;;17.13;50.57;102487.59;5055124;28;19917;-56
2023/04/18 01:21:25;;;;;;;;;;;;;;;17.18;50.29;102474.31;5035924;28;19944;-55
2023/04/18 01:23:56;;;;;;;;;;;;;;;17.29;49.96;102476.44;5037727;28;19917;-51
2023/04/18 01:26:21;;;;;;;;;;;;;;;17.37;49.86;102467.34;5036077;28;20363;-54
2023/04/18 01:28:47;;;;;;;;;;;;;;;17.15;50.05;102470.13;5037666;28;19939;-55
2023/04/18 01:31:12;;;;;;;;;;;;;;;17.13;50.57;102472.19;5054889;28;19928;-56
2023/04/18 01:33:37;;;;;;;;;;;;;;;17.10;49.48;102474.50;5037529;28;19956;-52
2023/04/18 01:36:03;;;;;;;;;;;;;;;16.82;49.49;102462.66;5054560;28;19960;-53
2023/04/18 01:38:29;;;;;;;;;;;;;;;17.02;49.96;102461.97;5054788;28;19971;-52
2023/04/18 01:40:55;;;;;;;;;;;;;;;17.57;48.55;102470.13;5054684;28;19917;-54
2023/04/18 01:43:20;;;;;;;;;;;;;;;16.95;49.07;102463.75;5037411;28;19928;-53
2023/04/18 01:45:46;;;;;;;;;;;;;;;16.82;49.20;102456.41;5037128;28;19921;-56
2023/04/18 01:48:11;;;;;;;;;;;;;;;16.86;49.18;102468.50;5037253;28;19917;-50
2023/04/18 01:50:40;;;;;;;;;;;;;;;16.54;51.45;102459.94;5053683;28;19928;-55
2023/04/18 01:53:05;;;;;;;;;;;;;;;16.49;50.50;102468.63;5067358;28;19924;-51
2023/04/18 01:55:31;;;;;;;;;;;;;;;16.67;48.95;102456.50;5074217;28;19917;-51
2023/04/18 01:57:56;;;;;;;;;;;;;;;16.62;49.02;102459.81;5074376;28;19928;-53
2023/04/18 02:00:22;;;;;;;;;;;;;;;16.67;48.90;102457.34;5073385;28;19929;-55
2023/04/18 02:02:49;;;;;;;;;;;;;;;16.67;48.86;102457.34;5074334;28;19986;-56
2023/04/18 02:05:15;;;;;;;;;;;;;;;16.37;49.13;102454.81;5074076;28;19939;-53
2023/04/18 02:07:41;;;;;;;;;;;;;;;16.31;49.21;102455.59;5072233;28;19972;-54
2023/04/18 02:10:08;;;;;;;;;;;;;;;16.71;48.74;102453.22;5073236;28;19917;-54
2023/04/18 02:12:33;;;;;;;;;;;;;;;16.13;49.28;102456.06;5073983;28;19921;-51
2023/04/18 02:14:58;;;;;;;;;;;;;;;16.38;49.23;102456.50;5071821;28;19924;-48
2023/04/18 02:17:24;;;;;;;;;;;;;;;16.24;49.84;102455.53;5072910;28;19924;-51
2023/04/18 02:19:52;;;;;;;;;;;;;;;16.33;49.53;102464.34;5074183;28;19919;-53
2023/04/18 02:22:18;;;;;;;;;;;;;;;16.47;49.14;102459.88;5073892;28;19921;-50
2023/04/18 02:24:43;;;;;;;;;;;;;;;16.42;48.91;102452.38;5073961;28;19923;-54
2023/04/18 02:27:09;;;;;;;;;;;;;;;16.40;48.96;102449.06;5073429;28;19917;-53
2023/04/18 02:29:35;;;;;;;;;;;;;;;16.18;49.15;102450.91;5073990;28;19943;-53
2023/04/18 02:32:02;;;;;;;;;;;;;;;16.14;49.30;102446.94;5073853;28;19928;-48
2023/04/18 02:34:27;;;;;;;;;;;;;;;16.30;49.06;102451.22;5073833;28;19920;-52
2023/04/18 02:36:53;;;;;;;;;;;;;;;16.29;49.13;102450.41;5073481;28;19917;-52
2023/04/18 02:39:19;;;;;;;;;;;;;;;16.26;49.07;102458.06;5073791;28;19947;-48
2023/04/18 02:41:44;;;;;;;;;;;;;;;16.15;49.24;102452.16;5072291;28;19963;-50
2023/04/18 02:44:10;;;;;;;;;;;;;;;16.06;49.34;102453.31;5073724;28;19948;-53
2023/04/18 02:46:37;;;;;;;;;;;;;;;15.70;50.61;102457.66;5071185;28;19928;-54
2023/04/18 02:49:06;;;;;;;;;;;;;;;16.01;49.51;102450.34;5072315;28;19924;-51
2023/04/18 02:51:32;;;;;;;;;;;;;;;16.12;49.19;102454.41;5073487;28;20009;-51
2023/04/18 02:53:58;;;;;;;;;;;;;;;16.04;49.24;102458.91;5072381;28;19921;-51
2023/04/18 02:56:29;;;;;;;;;;;;;;;15.99;49.37;102450.53;5072718;28;19924;-53
2023/04/18 02:59:16;;;;;;;;;;;;;;;15.90;49.38;102449.81;5072833;28;19939;-53
2023/04/18 03:01:58;;;;;;;;;;;;;;;15.81;49.59;102455.53;5073879;28;19917;-55
2023/04/18 03:04:24;;;;;;;;;;;;;;;15.93;49.67;102453.19;5077714;28;20014;-52
2023/04/18 03:06:58;;;;;;;;;;;;;;;15.82;49.50;102451.78;5074937;28;19940;-52
2023/04/18 03:09:24;;;;;;;;;;;;;;;15.86;49.54;102448.50;5076797;28;19916;-53
2023/04/18 03:11:55;;;;;;;;;;;;;;;15.92;49.50;102446.94;5075229;28;19917;-50
2023/04/18 03:14:24;;;;;;;;;;;;;;;15.67;49.79;102451.81;5075676;28;19920;-48
2023/04/18 03:16:53;;;;;;;;;;;;;;;15.83;49.64;102448.88;5076782;28;19932;-49
2023/04/18 03:19:21;;;;;;;;;;;;;;;15.87;49.47;102452.88;5087284;28;19913;-51
2023/04/18 03:21:49;;;;;;;;;;;;;;;15.74;49.89;102450.88;5074604;28;19917;-52
2023/04/18 03:24:15;;;;;;;;;;;;;;;15.48;50.50;102451.41;5077095;28;19917;-55
2023/04/18 03:26:46;;;;;;;;;;;;;;;15.56;50.43;102456.69;5076362;28;19966;-53
2023/04/18 03:29:12;;;;;;;;;;;;;;;15.74;50.18;102456.25;5076061;28;19921;-53
2023/04/18 03:31:40;;;;;;;;;;;;;;;15.54;50.46;102452.50;5076240;28;19944;-50
2023/04/18 03:34:05;;;;;;;;;;;;;;;15.67;50.41;102455.34;5076194;28;19928;-50
2023/04/18 03:36:31;;;;;;;;;;;;;;;15.61;50.97;102451.56;5077102;28;19984;-51
2023/04/18 03:38:57;;;;;;;;;;;;;;;15.47;50.86;102449.75;5075991;28;19928;-51
2023/04/18 03:41:23;;;;;;;;;;;;;;;15.47;51.10;102449.75;5075865;28;19985;-54
2023/04/18 03:43:50;;;;;;;;;;;;;;;15.57;51.06;102452.97;5077027;28;19984;-50
2023/04/18 03:46:16;;;;;;;;;;;;;;;15.66;50.87;102452.84;5076658;28;19916;-53
2023/04/18 03:48:41;;;;;;;;;;;;;;;15.45;51.15;102455.31;5075622;28;19931;-50
2023/04/18 03:51:09;;;;;;;;;;;;;;;15.37;51.84;102454.56;5071530;28;19923;-50
2023/04/18 03:53:37;;;;;;;;;;;;;;;15.18;52.49;102451.44;5075064;28;19925;-49
2023/04/18 03:56:02;;;;;;;;;;;;;;;15.32;52.07;102466.75;5076475;28;20076;-52
2023/04/18 03:58:48;;;;;;;;;;;;;;;15.15;52.79;102460.75;5075539;28;19962;-49
2023/04/18 04:01:14;;;;;;;;;;;;;;;15.75;52.25;102457.94;5075117;28;19916;-52
2023/04/18 04:03:39;;;;;;;;;;;;;;;15.40;52.27;102459.59;5076961;28;21058;-51
2023/04/18 04:06:05;;;;;;;;;;;;;;;15.25;52.44;102457.75;5072933;28;19928;-52
2023/04/18 04:08:32;;;;;;;;;;;;;;;15.31;52.45;102457.00;5076194;28;19917;-53
2023/04/18 04:10:58;;;;;;;;;;;;;;;15.27;52.64;102460.25;5074767;28;19925;-52
2023/04/18 04:13:23;;;;;;;;;;;;;;;15.04;52.89;102462.03;5072497;28;19956;-47
2023/04/18 04:15:49;;;;;;;;;;;;;;;15.06;53.32;102459.13;5076404;28;19984;-48
2023/04/18 04:18:15;;;;;;;;;;;;;;;15.01;53.04;102462.41;5076127;28;19923;-49
2023/04/18 04:20:44;;;;;;;;;;;;;;;15.09;53.30;102457.94;5075416;28;19983;-50
2023/04/18 04:23:13;;;;;;;;;;;;;;;15.40;53.09;102455.03;5073744;28;19928;-52
2023/04/18 04:25:40;;;;;;;;;;;;;;;14.77;54.15;102456.28;5074858;28;19988;-53
2023/04/18 04:28:15;;;;;;;;;;;;;;;14.97;55.05;102458.38;5075445;28;19959;-52
2023/04/18 04:30:51;;;;;;;;;;;;;;;15.08;53.96;102472.44;5073826;28;19912;-50
2023/04/18 04:33:18;;;;;;;;;;;;;;;15.15;53.72;102468.81;5074377;28;19921;-54
2023/04/18 04:35:44;;;;;;;;;;;;;;;15.23;53.32;102459.81;5075264;28;19927;-52
2023/04/18 04:38:11;;;;;;;;;;;;;;;14.96;53.86;102470.19;5073119;28;19916;-54
2023/04/18 04:40:43;;;;;;;;;;;;;;;15.23;53.90;102467.91;5075257;28;19924;-51
2023/04/18 04:43:15;;;;;;;;;;;;;;;15.17;53.93;102465.94;5073790;28;19916;-50
2023/04/18 04:45:42;;;;;;;;;;;;;;;15.21;54.15;102469.91;5073034;28;19953;-49
2023/04/18 04:48:08;;;;;;;;;;;;;;;15.21;54.24;102475.31;5075497;28;19956;-51
2023/04/18 04:50:35;;;;;;;;;;;;;;;15.38;53.71;102467.03;5088967;28;19966;-50
2023/04/18 04:53:00;;;;;;;;;;;;;;;15.48;53.58;102473.81;5075142;28;20058;-53
2023/04/18 04:55:26;;;;;;;;;;;;;;;15.52;53.50;102474.28;5073728;28;19916;-51
2023/04/18 04:57:53;;;;;;;;;;;;;;;15.57;53.31;102477.22;5074562;28;19916;-50
2023/04/18 05:00:31;;;;;;;;;;;;;;;15.60;53.76;102467.94;5072598;28;19916;-51
2023/04/18 05:02:56;;;;;;;;;;;;;;;15.68;53.50;102472.38;5075281;28;19917;-47
2023/04/18 05:05:24;;;;;;;;;;;;;;;15.70;54.06;102475.72;5071237;28;19927;-51
2023/04/18 05:07:49;;;;;;;;;;;;;;;15.64;53.52;102471.91;5075405;28;19952;-54
2023/04/18 05:10:15;;;;;;;;;;;;;;;15.91;53.30;102478.50;5075513;28;19916;-50
2023/04/18 05:12:40;;;;;;;;;;;;;;;15.98;53.36;102470.44;5073324;28;19920;-50
2023/04/18 05:15:06;;;;;;;;;;;;;;;16.22;52.97;102478.38;5075321;28;19931;-56
2023/04/18 05:17:31;;;;;;;;;;;;;;;16.40;52.97;102475.19;5075111;28;20287;-52
2023/04/18 05:19:56;;;;;;;;;;;;;;;16.25;52.92;102473.41;5071525;28;19924;-54
2023/04/18 05:22:21;;;;;;;;;;;;;;;16.18;53.64;102477.91;5072235;28;19943;-55
2023/04/18 05:24:47;;;;;;;;;;;;;;;16.49;53.15;102476.72;5074774;28;19970;-54
2023/04/18 05:27:12;;;;;;;;;;;;;;;16.08;53.75;102478.22;5074964;28;19924;-54
2023/04/18 05:29:38;;;;;;;;;;;;;;;16.37;52.98;102484.50;5074878;28;19931;-55
2023/04/18 05:32:03;;;;;;;;;;;;;;;16.57;52.69;102481.16;5074641;28;19920;-49
2023/04/18 05:34:29;;;;;;;;;;;;;;;16.40;53.63;102486.84;5074635;28;19929;-54
2023/04/18 05:36:55;;;;;;;;;;;;;;;16.33;53.21;102481.38;5074744;28;19920;-55
2023/04/18 05:39:20;;;;;;;;;;;;;;;16.40;53.35;102489.56;5072666;28;19917;-52
2023/04/18 05:41:46;;;;;;;;;;;;;;;16.17;54.91;102487.88;5074970;28;19919;-55
2023/04/18 05:44:11;;;;;;;;;;;;;;;16.52;53.58;102492.56;5074332;28;20012;-52
2023/04/18 05:46:37;;;;;;;;;;;;;;;16.66;54.58;102493.50;5074290;28;19972;-54
2023/04/18 05:49:02;;;;;;;;;;;;;;;16.61;53.81;102504.06;5074425;28;19921;-53
2023/04/18 05:51:28;;;;;;;;;;;;;;;16.47;53.72;102503.94;5074339;28;19924;-53
2023/04/18 05:53:53;;;;;;;;;;;;;;;16.43;54.18;102508.06;5073710;28;19944;-53
2023/04/18 05:56:19;;;;;;;;;;;;;;;16.69;53.20;102512.00;5074290;28;19925;-51
2023/04/18 05:58:45;;;;;;;;;;;;;;;16.52;53.70;102508.75;5074267;28;20381;-53
2023/04/18 06:01:13;;;;;;;;;;;;;;;16.75;53.42;102511.22;5073834;28;19917;-54
2023/04/18 06:03:38;;;;;;;;;;;;;;;17.03;52.63;102507.69;5073725;28;19931;-51
2023/04/18 06:06:04;;;;;;;;;;;;;;;16.97;53.24;102513.88;5073322;28;19916;-50
2023/04/18 06:08:30;;;;;;;;;;;;;;;17.10;53.04;102512.34;5072785;28;19913;-54
2023/04/18 06:10:55;;;;;;;;;;;;;;;16.92;53.67;102510.94;5069915;28;19921;-51
2023/04/18 06:13:20;;;;;;;;;;;;;;;17.31;53.16;102523.06;5071790;28;20031;-54
2023/04/18 06:15:47;;;;;;;;;;;;;;;17.33;52.70;102521.00;5071644;28;19913;-53
2023/04/18 06:18:12;;;;;;;;;;;;;;;17.42;52.76;102520.81;5071554;28;19959;-52
2023/04/18 06:20:37;;;;;;;;;;;;;;;17.50;52.42;102520.63;5071990;28;19944;-51
2023/04/18 06:23:03;;;;;;;;;;;;;;;17.42;52.41;102520.81;5071929;28;19912;-53
2023/04/18 06:25:29;;;;;;;;;;;;;;;17.24;54.31;102518.66;5072522;28;19943;-52
2023/04/18 06:27:54;;;;;;;;;;;;;;;16.61;54.66;102521.09;5071913;28;19939;-50
2023/04/18 06:30:20;;;;;;;;;;;;;;;17.43;52.79;102526.03;5071908;28;20409;-51
2023/04/18 06:32:46;;;;;;;;;;;;;;;17.57;52.92;102518.81;5073536;28;19921;-52
2023/04/18 06:35:11;;;;;;;;;;;;;;;17.81;52.52;102530.16;5071721;28;20209;-49
2023/04/18 06:37:37;;;;;;;;;;;;;;;17.69;53.52;102531.75;5073105;28;19952;-54
2023/04/18 06:40:02;;;;;;;;;;;;;;;17.42;53.39;102524.38;5073222;28;19917;-49
2023/04/18 06:42:28;;;;;;;;;;;;;;;17.77;53.99;102524.31;5073567;28;19924;-53
2023/04/18 06:44:53;;;;;;;;;;;;;;;17.93;53.33;102533.09;5073052;28;19916;-53
2023/04/18 06:47:19;;;;;;;;;;;;;;;17.97;52.87;102536.22;5073633;28;19938;-53
2023/04/18 06:49:44;;;;;;;;;;;;;;;17.70;53.51;102531.56;5073204;28;19924;-53
2023/04/18 06:52:10;;;;;;;;;;;;;;;18.22;52.60;102538.38;5067995;28;19927;-54
2023/04/18 06:54:35;;;;;;;;;;;;;;;17.92;53.36;102537.66;5052823;28;19944;-49
2023/04/18 06:57:02;;;;;;;;;;;;;;;18.17;52.89;102541.72;5053392;28;19925;-53
2023/04/18 06:59:29;;;;;;;;;;;;;;;17.83;53.69;102541.59;5053484;28;19928;-56
2023/04/18 07:01:54;;;;;;;;;;;;;;;18.10;53.32;102551.69;5053566;28;20600;-49
2023/04/18 07:04:20;;;;;;;;;;;;;;;17.92;54.10;102545.78;5052857;28;19932;-53
2023/04/18 07:06:45;;;;;;;;;;;;;;;18.17;53.48;102544.44;5053412;28;19917;-53
2023/04/18 07:09:11;;;;;;;;;;;;;;;18.41;53.29;102545.72;5051353;28;19925;-50
2023/04/18 07:11:37;;;;;;;;;;;;;;;18.25;53.20;102551.53;5053232;28;19961;-53
2023/04/18 07:14:03;;;;;;;;;;;;;;;18.44;53.15;102545.31;5052856;28;19921;-54
2023/04/18 07:16:29;;;;;;;;;;;;;;;18.59;52.92;102539.72;5053182;28;19928;-56
2023/04/18 07:18:55;;;;;;;;;;;;;;;19.08;52.53;102544.06;5052608;28;19935;-51
2023/04/18 07:21:20;;;;;;;;;;;;;;;18.41;53.54;102539.47;5053055;28;19921;-52
2023/04/18 07:23:46;;;;;;;;;;;;;;;18.99;52.45;102547.00;5053015;28;19917;-53
2023/04/18 07:26:12;;;;;;;;;;;;;;;18.94;52.58;102543.22;5052825;28;20157;-56
2023/04/18 07:28:38;;;;;;;;;;;;;;;18.69;52.79;102544.72;5052966;28;19917;-56
2023/04/18 07:31:03;;;;;;;;;;;;;;;19.00;52.38;102542.41;5053101;28;19924;-53
2023/04/18 07:33:32;;;;;;;;;;;;;;;18.77;53.33;102547.19;5053189;28;19971;-55
2023/04/18 07:35:59;;;;;;;;;;;;;;;19.25;52.10;102545.28;5052878;28;19925;-55
2023/04/18 07:38:25;;;;;;;;;;;;;;;18.85;52.94;102537.19;5052819;28;19917;-56
2023/04/18 07:40:57;;;;;;;;;;;;;;;19.19;52.71;102540.72;5053029;28;19917;-50
2023/04/18 07:43:23;;;;;;;;;;;;;;;19.02;53.03;102537.59;5053007;28;19923;-52
2023/04/18 07:45:48;;;;;;;;;;;;;;;19.32;52.81;102543.38;5052582;28;19979;-52
2023/04/18 07:48:14;;;;;;;;;;;;;;;19.23;53.27;102547.38;5053616;28;19948;-53
2023/04/18 07:50:39;;;;;;;;;;;;;;;19.73;51.79;102548.69;5056779;28;19917;-51
2023/04/18 07:53:07;;;;;;;;;;;;;;;19.36;52.24;102549.22;5068953;28;19920;-53
2023/04/18 07:55:32;;;;;;;;;;;;;;;19.49;51.75;102548.34;5076517;28;19977;-54
2023/04/18 07:57:57;;;;;;;;;;;;;;;19.54;51.40;102548.53;5076551;28;19916;-54
2023/04/18 08:00:23;;;;;;;;;;;;;;;19.68;51.54;102549.31;5076672;28;19917;-55
2023/04/18 08:02:48;;;;;;;;;;;;;;;19.60;51.92;102553.09;5076445;28;19917;-55
2023/04/18 08:05:14;;;;;;;;;;;;;;;20.45;50.78;102551.22;5076262;28;19943;-53
2023/04/18 08:07:39;;;;;;;;;;;;;;;19.91;50.74;102554.28;5076533;28;19920;-53
2023/04/18 08:10:05;;;;;;;;;;;;;;;19.97;51.14;102552.56;5076444;28;19917;-54
2023/04/18 08:12:31;;;;;;;;;;;;;;;19.86;51.23;102562.19;5076381;28;19917;-52
2023/04/18 08:14:56;;;;;;;;;;;;;;;20.18;50.60;102553.25;5076103;28;19924;-55
2023/04/18 08:17:22;;;;;;;;;;;;;;;20.61;49.18;102559.88;5076272;28;20098;-55
2023/04/18 08:19:47;;;;;;;;;;;;;;;20.65;49.17;102568.44;5076098;28;19962;-53
2023/04/18 08:22:13;;;;;;;;;;;;;;;20.15;49.70;102562.69;5075849;28;19921;-57
2023/04/18 08:24:38;;;;;;;;;;;;;;;20.11;50.70;102561.47;5076304;28;19917;-53
2023/04/18 08:27:04;;;;;;;;;;;;;;;19.94;50.85;102557.59;5071362;28;19917;-53
2023/04/18 08:29:30;;;;;;;;;;;;;;;19.85;50.83;102574.13;5074231;28;19912;-52
2023/04/18 08:31:55;;;;;;;;;;;;;;;19.95;50.82;102565.50;5075883;28;19917;-55
2023/04/18 08:34:21;;;;;;;;;;;;;;;20.04;51.44;102558.78;5075984;28;19921;-54
2023/04/18 08:36:46;;;;;;;;;;;;;;;19.75;51.67;102566.44;5075453;28;19971;-54
2023/04/18 08:39:12;;;;;;;;;;;;;;;19.53;51.82;102568.59;5075555;28;19924;-52
2023/04/18 08:41:41;;;;;;;;;;;;;;;20.17;50.82;102574.19;5075320;28;19920;-52
2023/04/18 08:44:06;;;;;;;;;;;;;;;21.00;49.25;102576.94;5075493;28;19948;-53
2023/04/18 08:46:32;;;;;;;;;;;;;;;21.16;49.80;102570.09;5074704;28;19923;-54
2023/04/18 08:48:58;;;;;;;;;;;;;;;21.00;49.78;102571.50;5075775;28;19916;-52
2023/04/18 08:51:28;;;;;;;;;;;;;;;20.23;50.91;102572.47;5075393;28;19923;-57
2023/04/18 08:53:55;;;;;;;;;;;;;;;20.20;51.50;102573.75;5056021;28;19949;-56
2023/04/18 08:56:24;;;;;;;;;;;;;;;20.23;51.10;102566.19;5055038;28;19917;-54
2023/04/18 08:58:51;;;;;;;;;;;;;;;20.16;51.51;102564.38;5055109;28;20001;-50
2023/04/18 09:01:16;;;;;;;;;;;;;;;20.93;50.81;102576.16;5055071;28;19928;-56
2023/04/18 09:03:42;;;;;;;;;;;;;;;20.95;49.75;102570.50;5055173;28;19980;-53
2023/04/18 09:06:12;;;;;;;;;;;;;;;20.91;49.83;102568.22;5055053;28;19917;-54
2023/04/18 09:08:39;;;;;;;;;;;;;;;21.19;49.82;102574.22;5055383;28;19981;-55
2023/04/18 09:11:20;;;;;;;;;;;;;;;21.32;48.85;102565.09;5055152;28;20016;-53
2023/04/18 09:13:46;;;;;;;;;;;;;;;21.63;48.13;102569.53;5054347;28;20259;-52
2023/04/18 09:16:13;;;;;;;;;;;;;;;22.05;48.24;102568.00;5055100;28;19925;-56
2023/04/18 09:18:39;;;;;;;;;;;;;;;;;;5055086;28;19917;-52
2023/04/18 09:21:18;;;;;;;;;;;;;;;22.62;46.62;102564.84;5054972;28;19917;-50
2023/04/18 09:23:46;;;;;;;;;;;;;;;22.86;46.17;102569.50;5053559;28;19985;-53
2023/04/18 09:26:12;;;;;;;;;;;;;;;22.96;45.32;102572.47;5054932;28;19917;-54
2023/04/18 09:28:39;;;;;;;;;;;;;;;23.15;45.48;102584.06;5054846;28;19932;-53
2023/04/18 09:31:10;;;;;;;;;;;;;;;24.51;44.37;102582.94;5054599;28;19948;-52
2023/04/18 09:33:36;;;;;;;;;;;;;;;24.72;43.09;102584.13;5054634;28;19921;-51
2023/04/18 09:36:16;;;;;;;;;;;;;;;25.09;41.94;102584.69;5054786;28;19924;-55
2023/04/18 09:38:42;;;;;;;;;;;;;;;25.49;41.37;102586.34;5054513;28;19932;-50
2023/04/18 09:41:08;;;;;;;;;;;;;;;25.98;41.08;102584.69;5054688;28;19917;-52
2023/04/18 09:43:33;;;;;;;;;;;;;;;26.52;39.66;102583.03;5054444;28;19924;-53
2023/04/18 09:45:59;;;;;;;;;;;;;;;26.23;39.59;102578.69;5054416;28;19919;-50
2023/04/18 09:48:25;;;;;;;;;;;;;;;25.27;40.81;102583.56;5054405;28;19924;-52
2023/04/18 09:50:51;;;;;;;;;;;;;;;24.41;42.40;102571.84;5054500;28;19960;-52
2023/04/18 09:53:17;;;;;;;;;;;;;;;25.56;41.08;102572.47;5068235;28;19925;-54
2023/04/18 09:55:44;;;;;;;;;;;;;;;26.37;40.67;102579.09;5074192;28;19925;-55
2023/04/18 09:58:09;;;;;;;;;;;;;;;26.70;39.91;102581.81;5073942;28;19938;-54
2023/04/18 10:00:35;;;;;;;;;;;;;;;26.06;40.45;102573.25;5074382;28;19925;-52
2023/04/18 10:03:01;;;;;;;;;;;;;;;25.29;41.16;102578.69;5073979;28;19980;-52
2023/04/18 10:05:34;;;;;;;;;;;;;;;24.80;41.75;102577.44;5074333;28;19923;-52
2023/04/18 10:07:59;;;;;;;;;;;;;;;24.01;42.06;102565.38;5073473;28;19924;-55
2023/04/18 10:10:25;;;;;;;;;;;;;;;24.12;42.22;102578.19;5073711;28;19917;-54
2023/04/18 10:12:55;;;;;;;;;;;;;;;24.28;43.10;102578.47;5073159;28;19992;-54
2023/04/18 10:15:21;;;;;;;;;;;;;;;24.18;42.74;102569.00;5071744;28;20533;-50
2023/04/18 10:17:54;;;;;;;;;;;;;;;24.44;42.44;102563.16;5072020;28;20023;-54
2023/04/18 10:20:21;;;;;;;;;;;;;;;25.33;41.82;102566.94;5072658;28;19944;-55
2023/04/18 10:22:47;;;;;;;;;;;;;;;26.36;40.02;102571.09;5073643;28;19947;-50
2023/04/18 10:25:13;;;;;;;;;;;;;;;26.13;39.80;102565.69;5073712;28;19920;-52
2023/04/18 10:27:48;;;;;;;;;;;;;;;25.96;40.60;102568.53;5073532;28;19917;-52
2023/04/18 10:30:14;;;;;;;;;;;;;;;26.49;39.24;102567.94;5073711;28;19927;-49
2023/04/18 10:32:40;;;;;;;;;;;;;;;26.67;38.56;102566.69;5073154;28;19917;-56
2023/04/18 10:35:05;;;;;;;;;;;;;;;25.88;39.43;102556.13;5073091;28;19927;-54
2023/04/18 10:37:31;;;;;;;;;;;;;;;25.70;39.54;102565.50;5072575;28;20005;-50
2023/04/18 10:39:58;;;;;;;;;;;;;;;24.91;40.44;102561.97;5072102;28;19917;-53
2023/04/18 10:42:43;;;;;;;;;;;;;;;24.79;41.20;102569.47;5073231;28;19920;-53
2023/04/18 10:45:18;;;;;;;;;;;;;;;23.99;42.13;102554.69;5072967;28;19917;-55
2023/04/18 10:47:44;;;;;;;;;;;;;;;23.99;41.83;102553.84;5073253;28;19917;-48
2023/04/18 10:50:10;;;;;;;;;;;;;;;24.24;41.80;102552.72;5073695;28;19917;-52
2023/04/18 10:52:36;;;;;;;;;;;;;;;24.54;41.40;102551.56;5064287;28;19982;-51
2023/04/18 10:55:15;;;;;;;;;;;;;;;26.54;38.30;102564.41;5053072;28;19921;-55
2023/04/18 10:57:45;;;;;;;;;;;;;;;26.06;38.31;102554.91;5052521;28;19924;-56
2023/04/18 11:00:12;;;;;;;;;;;;;;;26.13;37.98;102562.09;5053525;28;19916;-52
2023/04/18 11:02:39;;;;;;;;;;;;;;;24.87;39.26;102567.16;5050619;28;19917;-53
2023/04/18 11:05:05;;;;;;;;;;;;;;;24.45;40.52;102565.66;5052948;28;19985;-53
2023/04/18 11:07:34;;;;;;;;;;;;;;;23.73;41.26;102556.94;5052880;28;19955;-53
2023/04/18 11:10:00;;;;;;;;;;;;;;;23.35;42.59;102555.59;5053286;28;19917;-53
2023/04/18 11:12:27;;;;;;;;;;;;;;;23.20;43.88;102554.19;5050685;28;19936;-49
2023/04/18 11:14:54;;;;;;;;;;;;;;;23.39;44.29;102545.06;5053029;28;19945;-54
2023/04/18 11:17:20;;;;;;;;;;;;;;;23.28;43.90;102555.72;5053027;28;19928;-53
2023/04/18 11:19:46;;;;;;;;;;;;;;;22.70;45.49;102552.78;5053251;28;19917;-56
2023/04/18 11:22:12;;;;;;;;;;;;;;;22.95;44.74;102550.88;5053859;28;19917;-53
2023/04/18 11:24:38;;;;;;;;;;;;;;;22.40;45.46;102550.94;5057248;28;19917;-54
2023/04/18 11:27:04;;;;;;;;;;;;;;;22.34;46.79;102543.69;5056563;28;19928;-55
2023/04/18 11:29:31;;;;;;;;;;;;;;;22.39;46.18;102543.81;5057535;28;19922;-49
2023/04/18 11:31:56;;;;;;;;;;;;;;;22.41;46.73;102541.69;5057047;28;19944;-52
2023/04/18 11:34:27;;;;;;;;;;;;;;;22.72;46.86;102539.72;5057048;28;19917;-55
2023/04/18 11:36:53;;;;;;;;;;;;;;;22.94;46.63;102538.31;5057315;28;19925;-52
2023/04/18 11:39:18;;;;;;;;;;;;;;;22.97;45.82;102540.56;5057024;28;19924;-52
2023/04/18 11:41:49;;;;;;;;;;;;;;;22.91;45.67;102547.81;5057012;28;19917;-54
2023/04/18 11:44:25;;;;;;;;;;;;;;;22.78;46.54;102549.69;5056930;28;19928;-56
2023/04/18 11:46:51;;;;;;;;;;;;;;;22.34;47.20;102540.94;5056390;28;19989;-51
2023/04/18 11:49:28;;;;;;;;;;;;;;;22.39;47.06;102542.97;5056182;28;21355;-51
2023/04/18 11:51:54;;;;;;;;;;;;;;;22.82;47.39;102541.03;5057244;28;19988;-55
2023/04/18 11:54:36;;;;;;;;;;;;;;;22.42;47.78;102547.97;5076625;28;19928;-56
2023/04/18 11:57:01;;;;;;;;;;;;;;;22.53;47.96;102546.34;5074341;28;20387;-52
2023/04/18 11:59:27;;;;;;;;;;;;;;;22.04;48.47;102536.38;5076533;28;19967;-55
2023/04/18 12:02:00;;;;;;;;;;;;;;;21.86;48.84;102546.25;5074195;28;19928;-50
2023/04/18 12:04:26;;;;;;;;;;;;;;;22.20;47.79;102543.06;5075310;28;19917;-56
2023/04/18 12:06:55;;;;;;;;;;;;;;;22.26;48.25;102544.88;5076699;28;19931;-53
2023/04/18 12:09:23;;;;;;;;;;;;;;;22.27;48.54;102545.69;5076281;28;19920;-55
2023/04/18 12:12:01;;;;;;;;;;;;;;;22.86;47.92;102539.50;5076674;28;19916;-54
2023/04/18 12:14:27;;;;;;;;;;;;;;;22.42;48.03;102543.34;5075937;28;19980;-53
2023/04/18 12:16:53;;;;;;;;;;;;;;;22.67;48.26;102538.78;5076304;28;19924;-55
2023/04/18 12:19:19;;;;;;;;;;;;;;;22.80;47.92;102546.75;5076197;28;19917;-51
2023/04/18 12:22:00;;;;;;;;;;;;;;;22.49;47.98;102546.81;5076317;28;19936;-53
2023/04/18 12:24:30;;;;;;;;;;;;;;;22.61;48.21;102546.84;5076125;28;20050;-51
2023/04/18 12:27:00;;;;;;;;;;;;;;;22.73;48.48;102544.13;5074133;28;19917;-53
2023/04/18 12:29:26;;;;;;;;;;;;;;;22.25;48.78;102545.09;5076039;28;19939;-52
2023/04/18 12:31:51;;;;;;;;;;;;;;;22.43;48.98;102545.00;5076177;28;19980;-55
2023/04/18 12:34:17;;;;;;;;;;;;;;;22.46;49.18;102541.84;5074981;28;19920;-55
2023/04/18 12:36:43;;;;;;;;;;;;;;;22.71;48.86;102540.81;5076015;28;19972;-51